Time;durP1;ratioP1;P1;durP2;ratioP2;P2;SDS_P1;SDS_P2;PMS_P1;PMS_P2;Temp;Humidity;BMP_temperature;BMP_pressure;BME280_temperature;BME280_humidity;BME280_pressure;Samples;Min_cycle;Max_cycle;Signal;HPM_P1;HPM_P2
2023/10/09 00:02:29;;;;;;;29.25;20.95;;;20.40;77.10;;;;;;10816002;33;20063;-72
2023/10/09 00:08:32;;;;;;;24.65;17.42;;;20.30;77.60;;;;;;10830491;33;20019;-71
2023/10/09 00:14:38;;;;;;;17.12;14.45;;;20.30;77.50;;;;;;10829214;33;20020;-71
2023/10/09 00:20:42;;;;;;;19.05;16.37;;;20.30;77.40;;;;;;10814967;32;20039;-71
2023/10/09 00:26:45;;;;;;;16.62;11.85;;;20.30;77.40;;;;;;10828941;33;20060;-71
2023/10/09 00:33:07;;;;;;;17.30;14.18;;;20.30;77.60;;;;;;10815334;33;20063;-72
2023/10/09 00:39:19;;;;;;;20.90;16.20;;;20.20;78.10;;;;;;10815108;33;20054;-71
2023/10/09 00:45:28;;;;;;;23.80;17.80;;;20.10;78.10;;;;;;10828257;33;20024;-71
2023/10/09 00:51:36;;;;;;;;;;;20.10;78.30;;;;;;10825308;33;20327;-71
2023/10/09 00:57:40;;;;;;;23.62;16.15;;;20.10;78.10;;;;;;10827948;33;19945;-71
2023/10/09 01:03:45;;;;;;;17.60;15.40;;;20.10;78.10;;;;;;10827271;32;20020;-71
2023/10/09 01:09:51;;;;;;;24.08;17.70;;;20.00;78.30;;;;;;10827624;33;20017;-71
2023/10/09 01:15:54;;;;;;;21.42;16.17;;;20.00;78.30;;;;;;10814947;33;20398;-71
2023/10/09 01:22:02;;;;;;;21.55;17.70;;;20.00;78.40;;;;;;10814712;33;20028;-71
2023/10/09 01:28:05;;;;;;;20.52;16.45;;;19.90;78.30;;;;;;10827091;33;20082;-71
2023/10/09 01:34:09;;;;;;;18.30;15.35;;;20.00;78.40;;;;;;10828149;33;20016;-71
2023/10/09 01:46:33;;;;;;;20.25;15.68;;;19.90;78.40;;;;;;10827706;33;20051;-71
2023/10/09 01:52:37;;;;;;;17.80;14.98;;;19.80;78.80;;;;;;10826300;33;20050;-71
2023/10/09 01:58:40;;;;;;;19.52;16.48;;;19.80;78.90;;;;;;10826105;33;20016;-71
2023/10/09 02:04:42;;;;;;;18.37;13.02;;;19.70;79.30;;;;;;10825943;33;20024;-71
2023/10/09 02:10:47;;;;;;;19.45;14.48;;;19.60;79.00;;;;;;10825888;33;20012;-71
2023/10/09 02:17:02;;;;;;;22.23;18.05;;;19.50;79.20;;;;;;10812290;32;20020;-71
2023/10/09 02:23:12;;;;;;;17.73;15.85;;;19.50;79.60;;;;;;10825966;33;20444;-71
2023/10/09 02:29:18;;;;;;;26.35;16.30;;;19.50;79.80;;;;;;10825232;33;20052;-71
2023/10/09 02:35:44;;;;;;;16.75;13.68;;;19.60;79.70;;;;;;10826355;33;20024;-71
2023/10/09 02:41:49;;;;;;;22.15;16.33;;;19.50;79.50;;;;;;10824965;33;20055;-71
2023/10/09 02:47:51;;;;;;;16.02;13.40;;;19.50;79.50;;;;;;10847717;32;20356;-71
2023/10/09 03:00:31;;;;;;;18.08;15.73;;;19.50;80.00;;;;;;10981139;32;20022;-76
2023/10/09 03:06:40;;;;;;;20.23;14.63;;;19.50;79.90;;;;;;10979967;32;20026;-76
2023/10/09 03:12:43;;;;;;;14.63;13.07;;;19.40;79.80;;;;;;10979267;32;20014;-76
2023/10/09 03:18:52;;;;;;;23.85;18.30;;;19.40;79.80;;;;;;10966346;32;20076;-76
2023/10/09 03:24:55;;;;;;;26.50;17.15;;;19.40;79.90;;;;;;10966588;32;20423;-76
2023/10/09 03:31:02;;;;;;;24.87;17.60;;;19.40;79.90;;;;;;10986272;32;20015;-76
2023/10/09 03:37:04;;;;;;;17.12;12.32;;;19.40;80.30;;;;;;10986396;32;20015;-76
2023/10/09 03:43:06;;;;;;;17.23;15.25;;;19.40;80.20;;;;;;10987339;32;20019;-76
2023/10/09 03:49:20;;;;;;;16.70;12.80;;;19.30;80.30;;;;;;10928062;32;20039;-76
2023/10/09 03:55:27;;;;;;;19.25;14.38;;;19.30;80.20;;;;;;10829798;33;20016;-76
2023/10/09 04:01:29;;;;;;;17.25;15.00;;;19.20;80.20;;;;;;10829499;33;20405;-76
2023/10/09 04:07:33;;;;;;;17.35;12.77;;;19.20;80.10;;;;;;10816615;33;20027;-76
2023/10/09 04:13:35;;;;;;;15.43;10.65;;;19.20;80.60;;;;;;10827547;33;20074;-76
2023/10/09 04:19:48;;;;;;;17.87;15.50;;;19.10;80.50;;;;;;10828278;33;20047;-76
2023/10/09 04:25:51;;;;;;;16.42;13.68;;;19.00;80.50;;;;;;10825513;33;20015;-76
2023/10/09 04:31:56;;;;;;;18.50;14.65;;;19.00;80.50;;;;;;10829312;33;20020;-77
2023/10/09 04:38:05;;;;;;;13.93;11.38;;;19.00;80.40;;;;;;10814459;32;20032;-76
2023/10/09 04:44:24;;;;;;;22.42;17.02;;;19.00;80.80;;;;;;10828876;33;20011;-76
2023/10/09 04:56:31;;;;;;;17.23;13.70;;;18.90;81.50;;;;;;10827683;33;20020;-76
2023/10/09 05:02:36;;;;;;;19.27;14.80;;;18.80;81.40;;;;;;10827486;33;20042;-76
2023/10/09 05:08:45;;;;;;;14.13;11.32;;;18.80;81.30;;;;;;10823440;33;20066;-75
2023/10/09 05:15:07;;;;;;;16.42;11.23;;;18.70;81.20;;;;;;10827529;33;20013;-76
2023/10/09 05:33:52;;;;;;;19.73;15.13;;;18.60;81.30;;;;;;10826695;33;20043;-76
2023/10/09 05:46:15;;;;;;;18.20;15.77;;;18.60;81.40;;;;;;10826533;33;20011;-76
2023/10/09 06:05:40;;;;;;;20.95;17.33;;;18.70;81.20;;;;;;10821910;33;20046;-75
2023/10/09 06:17:43;;;;;;;21.48;18.05;;;18.60;81.10;;;;;;10825511;33;20346;-75
2023/10/09 06:30:44;;;;;;;16.83;12.80;;;18.70;81.30;;;;;;10812537;33;20024;-75
2023/10/09 06:36:53;;;;;;;18.98;15.80;;;18.80;81.10;;;;;;10825267;33;20327;-75
2023/10/09 06:42:55;;;;;;;23.20;17.55;;;18.80;81.20;;;;;;10827594;32;20021;-75
2023/10/09 06:48:57;;;;;;;17.65;13.23;;;19.00;81.50;;;;;;10828330;27;20426;-75
2023/10/09 06:55:19;;;;;;;18.77;16.33;;;19.00;81.30;;;;;;10823696;33;20036;-75
2023/10/09 07:07:34;;;;;;;18.00;14.43;;;19.20;81.10;;;;;;10815834;33;20093;-75
2023/10/09 07:13:37;;;;;;;24.95;17.73;;;19.20;80.90;;;;;;10824234;33;20040;-75
2023/10/09 07:25:54;;;;;;;16.62;14.13;;;19.40;80.80;;;;;;10823622;33;20028;-75
2023/10/09 07:31:57;;;;;;;15.10;11.80;;;19.50;80.80;;;;;;10823520;33;20048;-75
2023/10/09 07:38:02;;;;;;;13.95;12.05;;;19.60;80.60;;;;;;10824818;33;20024;-75
2023/10/09 07:44:19;;;;;;;18.60;15.45;;;19.70;80.50;;;;;;10823388;33;20043;-75
2023/10/09 07:50:22;;;;;;;18.83;13.57;;;19.80;80.30;;;;;;10823506;33;20402;-75
2023/10/09 07:56:24;;;;;;;16.90;13.20;;;19.90;80.10;;;;;;10835295;32;20039;-74
2023/10/09 08:02:33;;;;;;;19.55;13.65;;;20.00;80.20;;;;;;10824125;33;20452;-74
2023/10/09 08:39:54;;;;;;;14.52;11.80;;;20.60;79.00;;;;;;10829981;33;20008;-75
2023/10/09 08:46:00;;;;;;;21.37;13.32;;;20.70;78.80;;;;;;10827852;33;20012;-75
2023/10/09 08:52:04;;;;;;;20.75;16.10;;;20.80;78.60;;;;;;10827817;33;20028;-75
2023/10/09 09:04:38;;;;;;;23.95;18.58;;;21.00;78.20;;;;;;10827278;33;20024;-74
2023/10/09 09:11:14;;;;;;;27.90;20.62;;;21.10;78.00;;;;;;10826045;33;20321;-70
2023/10/09 09:17:27;;;;;;;30.30;20.70;;;21.30;77.70;;;;;;10828379;33;20051;-70
2023/10/09 09:23:30;;;;;;;26.45;19.98;;;21.40;77.40;;;;;;10827825;32;20402;-70
2023/10/09 09:29:39;;;;;;;34.55;27.98;;;21.60;77.10;;;;;;10827422;33;20020;-70
2023/10/09 09:36:05;;;;;;;33.95;23.45;;;21.60;77.00;;;;;;10826402;33;20016;-71
2023/10/09 09:42:13;;;;;;;28.27;23.95;;;21.80;76.80;;;;;;10826362;33;20054;-75
2023/10/09 09:48:16;;;;;;;30.17;21.62;;;21.80;76.60;;;;;;10825188;33;20027;-74
2023/10/09 09:54:22;;;;;;;27.13;22.90;;;22.00;76.30;;;;;;10826117;33;20008;-75
2023/10/09 10:00:42;;;;;;;27.75;21.80;;;22.10;76.10;;;;;;10825611;33;20020;-74
2023/10/09 10:06:47;;;;;;;27.13;20.17;;;22.20;75.90;;;;;;10825713;33;20028;-75
2023/10/09 10:13:23;;;;;;;32.15;22.05;;;22.40;75.60;;;;;;10825630;33;20012;-74
2023/10/09 10:19:59;;;;;;;36.13;26.37;;;22.60;75.40;;;;;;10824824;33;20090;-74
2023/10/09 10:26:25;;;;;;;32.28;20.80;;;22.70;74.80;;;;;;10826531;33;20326;-74
2023/10/09 10:32:54;;;;;;;30.37;23.50;;;22.80;74.80;;;;;;10822484;33;20051;-70
2023/10/09 10:39:50;;;;;;;29.50;22.50;;;23.00;74.50;;;;;;10825804;32;20431;-71
2023/10/09 10:45:35;;;;;;;40.58;28.85;;;23.20;74.30;;;;;;10830101;32;20031;-71
2023/10/09 10:51:38;;;;;;;31.30;21.20;;;23.40;73.60;;;;;;10824856;33;20386;-71
2023/10/09 11:04:12;;;;;;;30.42;22.55;;;23.80;72.90;;;;;;10824003;33;20047;-70
2023/10/09 11:10:28;;;;;;;38.03;26.55;;;24.00;72.30;;;;;;10823224;33;20326;-71
2023/10/09 11:16:41;;;;;;;26.67;19.40;;;24.20;72.10;;;;;;10820535;33;20013;-70
2023/10/09 11:23:05;;;;;;;29.48;21.90;;;24.30;71.80;;;;;;10823377;33;20019;-71
2023/10/09 11:29:23;;;;;;;28.52;19.75;;;24.40;71.50;;;;;;10823646;33;20361;-71
2023/10/09 11:35:34;;;;;;;27.87;20.75;;;24.60;71.10;;;;;;10823745;33;20009;-70
2023/10/09 11:41:41;;;;;;;29.95;21.90;;;24.70;70.90;;;;;;10824749;33;20012;-74
2023/10/09 11:47:54;;;;;;;28.25;22.58;;;24.70;70.80;;;;;;10826148;32;20066;-75
2023/10/09 11:53:58;;;;;;;28.38;21.90;;;24.80;70.60;;;;;;10829773;33;20290;-75
2023/10/09 12:00:01;;;;;;;27.30;20.35;;;24.80;70.40;;;;;;10831409;33;20412;-74
2023/10/09 12:06:06;;;;;;;24.37;17.30;;;24.80;70.30;;;;;;10829316;33;20024;-75
2023/10/09 12:12:11;;;;;;;25.85;20.00;;;24.90;70.30;;;;;;10829689;33;20326;-74
2023/10/09 12:18:23;;;;;;;29.67;23.08;;;24.90;69.90;;;;;;10829085;33;20024;-75
2023/10/09 12:24:57;;;;;;;27.40;20.45;;;24.90;69.90;;;;;;10829486;33;20386;-75
2023/10/09 12:31:02;;;;;;;34.30;24.48;;;24.80;69.30;;;;;;10828574;33;20410;-75
2023/10/09 12:37:06;;;;;;;;;;;24.90;69.20;;;;;;10830548;33;20056;-75
2023/10/09 12:43:19;;;;;;;21.55;16.77;;;24.80;69.20;;;;;;10828272;33;19923;-75
2023/10/09 12:49:49;;;;;;;32.15;19.50;;;24.80;69.40;;;;;;10826603;33;20413;-75
2023/10/09 12:55:56;;;;;;;26.75;19.12;;;25.00;69.30;;;;;;10829252;33;20042;-74
2023/10/09 13:01:58;;;;;;;26.27;22.60;;;24.90;69.10;;;;;;10823439;33;20055;-74
2023/10/09 13:08:01;;;;;;;29.12;20.25;;;24.90;68.80;;;;;;10827645;33;20028;-74
2023/10/09 13:14:11;;;;;;;27.75;21.25;;;25.00;68.90;;;;;;10827580;33;20047;-74
2023/10/09 13:20:26;;;;;;;27.77;20.48;;;25.00;68.90;;;;;;10827306;33;20024;-74
2023/10/09 13:26:34;;;;;;;26.62;20.55;;;25.00;68.70;;;;;;10827125;33;20020;-74
2023/10/09 13:32:49;;;;;;;38.83;22.27;;;25.00;68.70;;;;;;10827424;33;20047;-75
2023/10/09 13:38:51;;;;;;;24.40;17.08;;;25.10;68.60;;;;;;10826714;33;20020;-74
2023/10/09 13:44:56;;;;;;;33.38;21.90;;;25.20;68.60;;;;;;10825809;33;20407;-74
2023/10/09 13:50:58;;;;;;;32.72;22.30;;;25.10;69.10;;;;;;10826652;33;20043;-74
2023/10/09 13:57:06;;;;;;;36.45;27.55;;;25.10;69.50;;;;;;10827225;33;20089;-73
2023/10/09 14:03:13;;;;;;;33.93;24.33;;;25.20;70.40;;;;;;10826595;33;20384;-75
2023/10/09 14:15:39;;;;;;;38.10;26.23;;;25.10;71.20;;;;;;10826785;33;20016;-74
2023/10/09 14:21:41;;;;;;;32.83;25.05;;;25.20;71.10;;;;;;10824201;33;20421;-74
2023/10/09 14:27:44;;;;;;;37.95;24.45;;;25.20;71.10;;;;;;10822177;33;20342;-75
2023/10/09 14:33:53;;;;;;;27.80;21.23;;;25.20;71.10;;;;;;10825116;33;20024;-75
2023/10/09 14:39:58;;;;;;;35.03;22.83;;;25.20;70.90;;;;;;10826196;33;20043;-74
2023/10/09 14:46:01;;;;;;;29.17;23.55;;;25.10;71.00;;;;;;10822070;33;20054;-74
2023/10/09 14:52:08;;;;;;;28.33;23.17;;;25.10;71.20;;;;;;10738049;27;7283024;-75
2023/10/09 14:58:11;;;;;;;26.65;20.27;;;25.10;71.10;;;;;;10979484;32;20011;-74
2023/10/09 15:04:14;;;;;;;26.48;19.67;;;25.10;71.20;;;;;;10980444;32;20049;-75
2023/10/09 15:10:18;;;;;;;26.65;21.42;;;25.10;71.20;;;;;;10979985;32;20027;-75
2023/10/09 15:16:21;;;;;;;31.85;20.10;;;25.10;71.30;;;;;;10978206;32;20031;-74
2023/10/09 15:22:25;;;;;;;28.65;19.48;;;25.00;71.50;;;;;;10981448;32;20031;-75
2023/10/09 15:28:32;;;;;;;28.00;21.33;;;25.00;71.50;;;;;;10986553;32;20057;-74
2023/10/09 15:34:35;;;;;;;28.07;18.93;;;25.30;71.00;;;;;;10982848;32;20333;-75
2023/10/09 15:40:38;;;;;;;22.00;19.02;;;25.40;71.00;;;;;;10970828;32;20108;-75
2023/10/09 15:46:43;;;;;;;19.85;17.62;;;25.60;70.60;;;;;;10986044;32;20019;-75
2023/10/09 15:52:47;;;;;;;23.15;18.23;;;25.40;70.80;;;;;;10833503;32;20051;-74
2023/10/09 15:58:49;;;;;;;23.98;17.17;;;25.10;71.40;;;;;;10825627;33;20050;-74
2023/10/09 16:04:52;;;;;;;23.40;17.90;;;24.90;71.70;;;;;;10827710;32;20020;-74
2023/10/09 16:10:55;;;;;;;23.00;17.23;;;24.90;71.80;;;;;;10828485;32;20016;-74
2023/10/09 16:16:57;;;;;;;28.83;17.48;;;24.80;72.00;;;;;;10826758;32;20110;-74
2023/10/09 16:23:04;;;;;;;23.77;18.15;;;24.60;72.30;;;;;;10824175;32;20046;-74
2023/10/09 16:29:09;;;;;;;22.05;16.90;;;24.40;72.50;;;;;;10827010;32;20054;-74
2023/10/09 16:35:12;;;;;;;24.95;15.90;;;24.30;72.80;;;;;;10827846;32;20020;-74
2023/10/09 16:41:14;;;;;;;20.48;17.10;;;24.20;72.90;;;;;;10827398;32;20043;-74
2023/10/09 16:47:19;;;;;;;23.23;18.70;;;24.10;73.00;;;;;;10836090;32;20055;-74
2023/10/09 16:53:22;;;;;;;26.08;19.55;;;24.00;73.20;;;;;;10982900;32;20015;-74
2023/10/09 16:59:24;;;;;;;28.52;21.15;;;23.90;73.30;;;;;;10981279;32;20332;-74
2023/10/09 17:05:28;;;;;;;22.95;16.48;;;23.80;73.40;;;;;;10966913;32;20034;-74
2023/10/09 17:11:30;;;;;;;24.90;21.60;;;23.80;73.60;;;;;;10982658;32;20314;-74
2023/10/09 17:17:32;;;;;;;30.98;21.85;;;23.70;73.70;;;;;;10982956;32;20313;-74
2023/10/09 17:23:35;;;;;;;26.62;20.70;;;23.60;73.80;;;;;;10982895;32;20023;-74
2023/10/09 17:29:37;;;;;;;33.33;22.05;;;23.50;73.90;;;;;;10982685;32;20042;-74
2023/10/09 17:35:40;;;;;;;28.40;20.88;;;23.40;74.00;;;;;;10982578;32;20023;-74
2023/10/09 17:41:42;;;;;;;29.77;20.83;;;23.40;74.20;;;;;;10982236;32;20010;-75
2023/10/09 17:47:45;;;;;;;31.12;21.45;;;23.30;74.30;;;;;;10981840;32;20337;-74
2023/10/09 17:53:47;;;;;;;29.02;21.50;;;23.10;74.50;;;;;;10981503;32;20014;-75
2023/10/09 17:59:49;;;;;;;33.88;22.35;;;23.10;74.50;;;;;;10982279;32;20014;-74
2023/10/09 18:05:51;;;;;;;28.17;20.83;;;23.00;74.60;;;;;;10968123;32;20388;-75
2023/10/09 18:11:56;;;;;;;26.12;20.37;;;23.00;74.60;;;;;;10980687;32;20014;-74
2023/10/09 18:17:59;;;;;;;34.25;22.73;;;23.00;74.70;;;;;;10980979;32;20428;-75
2023/10/09 18:24:05;;;;;;;35.20;21.15;;;22.90;74.70;;;;;;10946797;32;20023;-75
2023/10/09 18:30:11;;;;;;;26.58;19.75;;;22.80;74.80;;;;;;10938135;32;20055;-75
2023/10/09 18:36:14;;;;;;;37.50;25.77;;;22.70;75.00;;;;;;10938544;32;20015;-75
2023/10/09 18:42:16;;;;;;;28.25;20.65;;;22.70;75.00;;;;;;10938654;32;20022;-75
2023/10/09 18:48:22;;;;;;;27.10;22.85;;;22.70;75.00;;;;;;10888918;32;20028;-75
2023/10/09 18:54:25;;;;;;;31.42;20.33;;;22.70;75.10;;;;;;10783819;33;20012;-75
2023/10/09 19:00:30;;;;;;;24.35;19.98;;;22.60;75.20;;;;;;10782999;33;20016;-75
2023/10/09 19:06:32;;;;;;;34.53;25.20;;;22.50;75.40;;;;;;10781827;33;20063;-74
2023/10/09 19:12:39;;;;;;;24.45;20.80;;;22.50;75.50;;;;;;10783316;33;20024;-75
2023/10/09 19:18:41;;;;;;;29.27;24.40;;;22.50;75.50;;;;;;10783025;33;20016;-75
2023/10/09 19:24:45;;;;;;;28.83;21.77;;;22.40;75.40;;;;;;10769423;33;20035;-75
2023/10/09 19:30:47;;;;;;;27.42;20.62;;;22.40;75.50;;;;;;10809845;33;20074;-74
2023/10/09 19:36:50;;;;;;;32.28;25.12;;;22.30;75.90;;;;;;10823960;33;20016;-75
2023/10/09 19:42:52;;;;;;;33.28;26.98;;;22.20;76.10;;;;;;10824026;33;20028;-74
2023/10/09 19:48:55;;;;;;;29.87;24.12;;;22.20;76.00;;;;;;10819225;33;20051;-74
2023/10/09 19:54:57;;;;;;;29.02;21.48;;;22.20;76.00;;;;;;10810641;32;20040;-74
2023/10/09 20:00:59;;;;;;;35.75;25.37;;;22.20;76.10;;;;;;10806501;32;20047;-75
2023/10/09 20:07:01;;;;;;;23.70;20.05;;;22.10;76.20;;;;;;10819279;33;20020;-74
2023/10/09 20:13:03;;;;;;;31.92;24.25;;;22.10;76.20;;;;;;10796124;32;20338;-75
2023/10/09 20:19:08;;;;;;;32.70;25.12;;;22.20;76.30;;;;;;10787935;33;20017;-75
2023/10/09 20:25:13;;;;;;;31.58;23.10;;;22.00;76.50;;;;;;10788624;33;20036;-75
2023/10/09 20:31:15;;;;;;;30.83;26.33;;;22.00;76.80;;;;;;10773985;33;20055;-75
2023/10/09 20:37:17;;;;;;;33.63;25.88;;;21.90;77.00;;;;;;10787488;33;20024;-74
2023/10/09 20:43:19;;;;;;;36.35;26.77;;;21.90;76.90;;;;;;10817701;33;20008;-75
2023/10/09 20:49:21;;;;;;;37.33;26.37;;;21.90;76.90;;;;;;10825782;33;20020;-75
2023/10/09 20:55:24;;;;;;;34.75;27.60;;;21.90;77.20;;;;;;10827762;33;20028;-74
2023/10/09 21:01:26;;;;;;;26.00;21.90;;;21.80;77.20;;;;;;10829267;33;20315;-74
2023/10/09 21:07:29;;;;;;;28.48;21.37;;;21.80;77.10;;;;;;10828521;33;20016;-74
2023/10/09 21:13:32;;;;;;;30.92;23.58;;;21.90;77.00;;;;;;10826610;33;20032;-75
2023/10/09 21:19:34;;;;;;;33.67;23.90;;;21.90;77.00;;;;;;10828016;32;20043;-74
2023/10/09 21:25:36;;;;;;;31.55;26.10;;;21.80;77.30;;;;;;10827101;33;20047;-74
2023/10/09 21:31:39;;;;;;;32.78;27.48;;;21.80;77.50;;;;;;10827496;33;20043;-74
2023/10/09 21:37:48;;;;;;;34.75;24.20;;;21.80;77.50;;;;;;10813620;33;20032;-74
2023/10/09 21:43:53;;;;;;;32.85;26.65;;;21.80;77.60;;;;;;10822748;33;20093;-75
2023/10/09 21:49:56;;;;;;;37.92;28.55;;;21.70;77.90;;;;;;10827042;33;20016;-75
2023/10/09 21:56:05;;;;;;;36.10;26.80;;;21.60;78.20;;;;;;10822339;33;20051;-75
2023/10/09 22:02:07;;;;;;;30.42;23.52;;;21.50;78.40;;;;;;10826069;33;20198;-75
2023/10/09 22:08:10;;;;;;;32.92;24.70;;;21.50;78.70;;;;;;10827094;33;20008;-74
2023/10/09 22:14:13;;;;;;;32.53;26.45;;;21.50;78.70;;;;;;10812681;33;20020;-71
2023/10/09 22:20:18;;;;;;;27.90;23.55;;;21.50;78.60;;;;;;10811643;33;20051;-71
2023/10/09 22:26:20;;;;;;;30.02;23.77;;;21.60;78.50;;;;;;10826114;33;20380;-71
2023/10/09 22:32:27;;;;;;;22.70;17.95;;;21.60;78.30;;;;;;10825077;33;20369;-71
2023/10/09 22:38:29;;;;;;;24.73;18.70;;;21.60;78.30;;;;;;10825622;33;20015;-71
2023/10/09 22:44:32;;;;;;;25.37;19.70;;;21.50;78.20;;;;;;10825972;33;20047;-71
2023/10/09 22:50:34;;;;;;;26.70;18.92;;;21.60;78.20;;;;;;10918713;27;20052;-71
2023/10/09 22:56:37;;;;;;;28.10;21.30;;;21.60;78.20;;;;;;10979486;32;20023;-71
2023/10/09 23:02:56;;;;;;;20.67;16.37;;;21.50;78.10;;;;;;10979310;32;20053;-71
2023/10/09 23:09:05;;;;;;;26.52;21.35;;;21.60;78.00;;;;;;10966471;32;20045;-71
2023/10/09 23:15:09;;;;;;;20.58;17.30;;;21.50;78.20;;;;;;10966264;32;20023;-71
2023/10/09 23:21:20;;;;;;;28.85;20.52;;;21.50;78.20;;;;;;10979682;32;20404;-70
2023/10/09 23:33:40;;;;;;;21.98;18.35;;;21.40;78.30;;;;;;10979344;32;20051;-71
2023/10/09 23:39:54;;;;;;;24.10;18.15;;;21.30;78.40;;;;;;10978877;32;20023;-71
2023/10/09 23:45:57;;;;;;;25.15;20.70;;;21.30;78.30;;;;;;10984426;32;20031;-71
2023/10/09 23:52:00;;;;;;;22.55;19.00;;;21.30;78.20;;;;;;10855310;32;20042;-71
2023/10/09 23:58:16;;;;;;;23.40;17.27;;;21.30;78.20;;;;;;10811988;33;20040;-71
